Airport View

Enter AWOS ICAO identifier for current METAR.

ex. KFNL

KEND 031556Z AUTO 15008KT 10SM FEW085 SCT150 SCT200 31/21 A3004 RMK AO2 LTG DSNT N SLP158 T03060208 $

3 Jul 2020 16:17

Other Area AWOS: KWDG - KBKN - KJWG - KGOK

TAF KEND 022230Z 0222/0404 16012G20KT 9999 SCT050 QNH2991INS BECMG 0223/0224 16012KT 9999 SCT070 QNH2985INS TEMPO 0302/0305 VRB30G40KT 6000 TSRA BKN040CB BECMG 0305/0306 VRB06KT 8000 BR FEW100 QNH2993INS TX36/0222Z TN26/0311Z LAST NO AMDS AFT 0222 NEXT 0710